sensor_id;sensor_type;location;lat;lon;timestamp;pressure;altitude;pressure_sealevel;temperature;humidity
83563;BME280;73535;52.500;13.482;2023-12-04T00:00:21;101774.06;;;-2.47;78.54
83563;BME280;73535;52.500;13.482;2023-12-04T00:02:46;101774.91;;;-2.48;77.70
83563;BME280;73535;52.500;13.482;2023-12-04T00:05:12;101762.06;;;-2.45;78.47
83563;BME280;73535;52.500;13.482;2023-12-04T00:07:37;101762.91;;;-2.52;78.23
83563;BME280;73535;52.500;13.482;2023-12-04T00:10:02;101772.34;;;-2.53;78.41
83563;BME280;73535;52.500;13.482;2023-12-04T00:12:28;101766.34;;;-2.52;78.07
83563;BME280;73535;52.500;13.482;2023-12-04T00:14:53;101765.47;;;-2.52;78.09
83563;BME280;73535;52.500;13.482;2023-12-04T00:17:18;101753.47;;;-2.55;77.93
83563;BME280;73535;52.500;13.482;2023-12-04T00:19:43;101762.03;;;-2.54;78.00
83563;BME280;73535;52.500;13.482;2023-12-04T00:22:09;101764.59;;;-2.57;77.92
83563;BME280;73535;52.500;13.482;2023-12-04T00:24:34;101761.19;;;-2.65;78.56
83563;BME280;73535;52.500;13.482;2023-12-04T00:26:59;101752.59;;;-2.60;78.65
83563;BME280;73535;52.500;13.482;2023-12-04T00:29:24;101760.31;;;-2.60;77.78
83563;BME280;73535;52.500;13.482;2023-12-04T00:31:50;101756.88;;;-2.60;77.82
83563;BME280;73535;52.500;13.482;2023-12-04T00:34:15;101753.47;;;-2.62;78.32
83563;BME280;73535;52.500;13.482;2023-12-04T00:36:40;101759.44;;;-2.66;77.24
83563;BME280;73535;52.500;13.482;2023-12-04T00:39:05;101766.31;;;-2.65;77.55
83563;BME280;73535;52.500;13.482;2023-12-04T00:41:30;101769.75;;;-2.63;77.69
83563;BME280;73535;52.500;13.482;2023-12-04T00:43:56;101758.59;;;-2.64;78.38
83563;BME280;73535;52.500;13.482;2023-12-04T00:46:21;101768.88;;;-2.65;77.75
83563;BME280;73535;52.500;13.482;2023-12-04T00:48:46;101776.63;;;-2.65;77.77
83563;BME280;73535;52.500;13.482;2023-12-04T00:51:12;101774.88;;;-2.66;78.25
83563;BME280;73535;52.500;13.482;2023-12-04T00:53:37;101780.03;;;-2.68;77.94
83563;BME280;73535;52.500;13.482;2023-12-04T00:56:02;101780.03;;;-2.69;77.59
83563;BME280;73535;52.500;13.482;2023-12-04T00:58:28;101783.47;;;-2.73;77.96
83563;BME280;73535;52.500;13.482;2023-12-04T01:00:53;101777.44;;;-2.74;77.92
83563;BME280;73535;52.500;13.482;2023-12-04T01:03:18;101782.59;;;-2.71;77.43
83563;BME280;73535;52.500;13.482;2023-12-04T01:05:43;101769.75;;;-2.66;77.78
83563;BME280;73535;52.500;13.482;2023-12-04T01:08:09;101769.75;;;-2.68;77.95
83563;BME280;73535;52.500;13.482;2023-12-04T01:10:34;101770.59;;;-2.79;77.94
83563;BME280;73535;52.500;13.482;2023-12-04T01:12:59;101778.31;;;-2.76;77.50
83563;BME280;73535;52.500;13.482;2023-12-04T01:15:24;101774.00;;;-2.74;77.53
83563;BME280;73535;52.500;13.482;2023-12-04T01:17:50;101773.16;;;-2.82;78.42
83563;BME280;73535;52.500;13.482;2023-12-04T01:20:15;101766.25;;;-2.87;78.14
83563;BME280;73535;52.500;13.482;2023-12-04T01:22:40;101772.25;;;-2.89;77.64
83563;BME280;73535;52.500;13.482;2023-12-04T01:25:06;101761.97;;;-2.91;78.03
83563;BME280;73535;52.500;13.482;2023-12-04T01:27:31;101756.00;;;-2.82;77.89
83563;BME280;73535;52.500;13.482;2023-12-04T01:29:56;101756.03;;;-2.76;78.10
83563;BME280;73535;52.500;13.482;2023-12-04T01:32:22;101747.44;;;-2.76;78.00
83563;BME280;73535;52.500;13.482;2023-12-04T01:34:47;101758.56;;;-2.82;78.01
83563;BME280;73535;52.500;13.482;2023-12-04T01:37:12;101757.72;;;-2.82;77.82
83563;BME280;73535;52.500;13.482;2023-12-04T01:39:37;101750.84;;;-2.80;77.67
83563;BME280;73535;52.500;13.482;2023-12-04T01:42:03;101730.25;;;-2.83;78.33
83563;BME280;73535;52.500;13.482;2023-12-04T01:44:28;101731.97;;;-2.86;78.24
83563;BME280;73535;52.500;13.482;2023-12-04T01:46:53;101728.56;;;-2.88;78.28
83563;BME280;73535;52.500;13.482;2023-12-04T01:49:19;101728.56;;;-2.84;77.97
83563;BME280;73535;52.500;13.482;2023-12-04T01:51:44;101726.84;;;-2.86;78.03
83563;BME280;73535;52.500;13.482;2023-12-04T01:54:10;101731.13;;;-2.83;77.98
83563;BME280;73535;52.500;13.482;2023-12-04T01:56:36;101727.69;;;-2.87;77.91
83563;BME280;73535;52.500;13.482;2023-12-04T01:59:02;101730.28;;;-2.80;78.73
83563;BME280;73535;52.500;13.482;2023-12-04T02:01:28;101731.13;;;-2.83;78.45
83563;BME280;73535;52.500;13.482;2023-12-04T02:03:54;101721.69;;;-2.84;78.43
83563;BME280;73535;52.500;13.482;2023-12-04T02:06:21;101725.97;;;-2.75;78.21
83563;BME280;73535;52.500;13.482;2023-12-04T02:08:47;101723.41;;;-2.81;78.12
83563;BME280;73535;52.500;13.482;2023-12-04T02:11:13;101731.13;;;-2.83;78.73
83563;BME280;73535;52.500;13.482;2023-12-04T02:13:38;101724.25;;;-2.87;78.77
83563;BME280;73535;52.500;13.482;2023-12-04T02:16:05;101720.81;;;-2.81;78.30
83563;BME280;73535;52.500;13.482;2023-12-04T02:18:34;101718.25;;;-2.78;78.74
83563;BME280;73535;52.500;13.482;2023-12-04T02:21:00;101714.84;;;-2.77;78.81
83563;BME280;73535;52.500;13.482;2023-12-04T02:23:26;101718.25;;;-2.78;78.74
83563;BME280;73535;52.500;13.482;2023-12-04T02:25:59;101707.97;;;-2.75;79.01
83563;BME280;73535;52.500;13.482;2023-12-04T02:28:28;101706.28;;;-2.67;78.77
83563;BME280;73535;52.500;13.482;2023-12-04T02:30:56;101708.00;;;-2.71;78.73
83563;BME280;73535;52.500;13.482;2023-12-04T02:33:24;101706.28;;;-2.73;78.83
83563;BME280;73535;52.500;13.482;2023-12-04T02:35:50;101702.84;;;-2.72;78.47
83563;BME280;73535;52.500;13.482;2023-12-04T02:38:16;101691.72;;;-2.73;78.24
83563;BME280;73535;52.500;13.482;2023-12-04T02:40:41;101691.69;;;-2.68;77.88
83563;BME280;73535;52.500;13.482;2023-12-04T02:43:06;101696.84;;;-2.73;77.97
83563;BME280;73535;52.500;13.482;2023-12-04T02:45:31;101693.41;;;-2.78;78.41
83563;BME280;73535;52.500;13.482;2023-12-04T02:47:57;101688.28;;;-2.76;78.12
83563;BME280;73535;52.500;13.482;2023-12-04T02:50:22;101685.69;;;-2.76;78.26
83563;BME280;73535;52.500;13.482;2023-12-04T02:52:47;101680.56;;;-2.79;78.01
83563;BME280;73535;52.500;13.482;2023-12-04T02:55:12;101682.25;;;-2.75;78.52
83563;BME280;73535;52.500;13.482;2023-12-04T02:57:38;101680.53;;;-2.81;78.02
83563;BME280;73535;52.500;13.482;2023-12-04T03:00:03;101683.09;;;-2.81;77.76
83563;BME280;73535;52.500;13.482;2023-12-04T03:02:29;101677.09;;;-2.75;77.91
83563;BME280;73535;52.500;13.482;2023-12-04T03:04:54;101679.69;;;-2.75;77.82
83563;BME280;73535;52.500;13.482;2023-12-04T03:07:20;101677.13;;;-2.88;77.49
83563;BME280;73535;52.500;13.482;2023-12-04T03:09:46;101677.94;;;-2.93;77.66
83563;BME280;73535;52.500;13.482;2023-12-04T03:12:11;101671.97;;;-2.94;77.62
83563;BME280;73535;52.500;13.482;2023-12-04T03:14:36;101665.09;;;-2.86;77.88
83563;BME280;73535;52.500;13.482;2023-12-04T03:17:02;101667.66;;;-2.93;78.17
83563;BME280;73535;52.500;13.482;2023-12-04T03:19:27;101668.53;;;-2.97;78.26
83563;BME280;73535;52.500;13.482;2023-12-04T03:21:52;101662.53;;;-2.96;78.01
83563;BME280;73535;52.500;13.482;2023-12-04T03:24:17;101659.94;;;-3.01;78.04
83563;BME280;73535;52.500;13.482;2023-12-04T03:26:43;101657.38;;;-2.92;77.38
83563;BME280;73535;52.500;13.482;2023-12-04T03:29:08;101653.09;;;-2.93;77.24
83563;BME280;73535;52.500;13.482;2023-12-04T03:31:33;101656.50;;;-3.06;76.86
83563;BME280;73535;52.500;13.482;2023-12-04T03:33:59;101653.91;;;-3.10;77.56
83563;BME280;73535;52.500;13.482;2023-12-04T03:36:24;101653.94;;;-3.03;77.63
83563;BME280;73535;52.500;13.482;2023-12-04T03:38:49;101643.66;;;-3.04;77.03
83563;BME280;73535;52.500;13.482;2023-12-04T03:41:15;101652.22;;;-3.08;77.10
83563;BME280;73535;52.500;13.482;2023-12-04T03:43:41;101646.19;;;-3.16;77.48
83563;BME280;73535;52.500;13.482;2023-12-04T03:46:06;101655.63;;;-3.17;77.74
83563;BME280;73535;52.500;13.482;2023-12-04T03:48:32;101647.94;;;-3.08;77.61
83563;BME280;73535;52.500;13.482;2023-12-04T03:50:57;101647.09;;;-3.02;77.03
83563;BME280;73535;52.500;13.482;2023-12-04T03:53:22;101647.09;;;-2.99;77.05
83563;BME280;73535;52.500;13.482;2023-12-04T03:55:47;101635.09;;;-2.93;77.04
83563;BME280;73535;52.500;13.482;2023-12-04T03:58:12;101626.50;;;-2.90;77.02
83563;BME280;73535;52.500;13.482;2023-12-04T04:00:38;101627.38;;;-2.93;76.31
83563;BME280;73535;52.500;13.482;2023-12-04T04:03:08;101621.38;;;-2.95;76.21
83563;BME280;73535;52.500;13.482;2023-12-04T04:05:33;101622.22;;;-2.99;76.84
83563;BME280;73535;52.500;13.482;2023-12-04T04:07:59;101618.78;;;-3.01;77.41
83563;BME280;73535;52.500;13.482;2023-12-04T04:10:24;101617.94;;;-3.01;77.39
83563;BME280;73535;52.500;13.482;2023-12-04T04:12:50;101620.53;;;-3.00;77.33
83563;BME280;73535;52.500;13.482;2023-12-04T04:15:15;101620.53;;;-3.03;77.29
83563;BME280;73535;52.500;13.482;2023-12-04T04:17:40;101631.66;;;-3.02;77.78
83563;BME280;73535;52.500;13.482;2023-12-04T04:20:06;101623.94;;;-2.98;77.33
83563;BME280;73535;52.500;13.482;2023-12-04T04:22:31;101617.94;;;-2.95;77.61
83563;BME280;73535;52.500;13.482;2023-12-04T04:24:59;101629.09;;;-2.92;77.45
83563;BME280;73535;52.500;13.482;2023-12-04T04:27:24;101626.53;;;-2.96;77.71
83563;BME280;73535;52.500;13.482;2023-12-04T04:29:50;101625.66;;;-3.00;77.13
83563;BME280;73535;52.500;13.482;2023-12-04T04:32:15;101638.50;;;-3.01;77.41
83563;BME280;73535;52.500;13.482;2023-12-04T04:34:40;101629.09;;;-2.99;77.72
83563;BME280;73535;52.500;13.482;2023-12-04T04:37:05;101626.53;;;-2.95;77.56
83563;BME280;73535;52.500;13.482;2023-12-04T04:39:30;101622.22;;;-2.87;77.31
83563;BME280;73535;52.500;13.482;2023-12-04T04:41:56;101623.09;;;-2.91;77.02
83563;BME280;73535;52.500;13.482;2023-12-04T04:44:21;101612.81;;;-2.89;77.58
83563;BME280;73535;52.500;13.482;2023-12-04T04:46:46;101617.94;;;-2.81;77.72
83563;BME280;73535;52.500;13.482;2023-12-04T04:49:11;101617.94;;;-2.75;77.12
83563;BME280;73535;52.500;13.482;2023-12-04T04:51:37;101611.94;;;-2.68;76.81
83563;BME280;73535;52.500;13.482;2023-12-04T04:54:02;101613.66;;;-2.78;77.24
83563;BME280;73535;52.500;13.482;2023-12-04T04:56:27;101611.09;;;-2.75;76.83
83563;BME280;73535;52.500;13.482;2023-12-04T04:58:53;101611.09;;;-2.69;77.13
83563;BME280;73535;52.500;13.482;2023-12-04T05:01:18;101606.81;;;-2.65;76.83
83563;BME280;73535;52.500;13.482;2023-12-04T05:03:43;101600.78;;;-2.72;77.48
83563;BME280;73535;52.500;13.482;2023-12-04T05:06:08;101601.69;;;-2.73;76.78
83563;BME280;73535;52.500;13.482;2023-12-04T05:08:34;101601.69;;;-2.73;77.26
83563;BME280;73535;52.500;13.482;2023-12-04T05:10:59;101600.78;;;-2.75;77.02
83563;BME280;73535;52.500;13.482;2023-12-04T05:13:24;101594.78;;;-2.81;76.70
83563;BME280;73535;52.500;13.482;2023-12-04T05:15:49;101593.09;;;-2.73;77.09
83563;BME280;73535;52.500;13.482;2023-12-04T05:18:15;101592.22;;;-2.66;76.88
83563;BME280;73535;52.500;13.482;2023-12-04T05:20:40;101595.66;;;-2.66;76.23
83563;BME280;73535;52.500;13.482;2023-12-04T05:23:05;101587.94;;;-2.70;76.33
83563;BME280;73535;52.500;13.482;2023-12-04T05:25:30;101580.22;;;-2.67;76.10
83563;BME280;73535;52.500;13.482;2023-12-04T05:27:56;101577.66;;;-2.61;76.32
83563;BME280;73535;52.500;13.482;2023-12-04T05:30:21;101574.22;;;-2.69;75.92
83563;BME280;73535;52.500;13.482;2023-12-04T05:32:46;101569.06;;;-2.75;76.27
83563;BME280;73535;52.500;13.482;2023-12-04T05:35:11;101575.06;;;-2.81;75.99
83563;BME280;73535;52.500;13.482;2023-12-04T05:37:37;101569.94;;;-2.72;76.79
83563;BME280;73535;52.500;13.482;2023-12-04T05:40:02;101574.22;;;-2.75;76.24
83563;BME280;73535;52.500;13.482;2023-12-04T05:42:29;101560.47;;;-2.47;77.25
83563;BME280;73535;52.500;13.482;2023-12-04T05:44:54;101554.47;;;-2.57;75.63
83563;BME280;73535;52.500;13.482;2023-12-04T05:47:21;101563.94;;;-2.62;76.28
83563;BME280;73535;52.500;13.482;2023-12-04T05:49:46;101563.09;;;-2.85;76.22
83563;BME280;73535;52.500;13.482;2023-12-04T05:52:11;101564.78;;;-2.93;76.74
83563;BME280;73535;52.500;13.482;2023-12-04T05:54:36;101563.94;;;-3.09;77.54
83563;BME280;73535;52.500;13.482;2023-12-04T05:57:02;101556.22;;;-3.10;77.14
83563;BME280;73535;52.500;13.482;2023-12-04T05:59:27;101564.81;;;-3.05;77.27
83563;BME280;73535;52.500;13.482;2023-12-04T06:01:52;101568.22;;;-3.03;77.99
83563;BME280;73535;52.500;13.482;2023-12-04T06:04:18;101557.09;;;-3.10;77.96
83563;BME280;73535;52.500;13.482;2023-12-04T06:06:43;101563.09;;;-3.15;78.13
83563;BME280;73535;52.500;13.482;2023-12-04T06:09:08;101564.81;;;-3.05;78.36
83563;BME280;73535;52.500;13.482;2023-12-04T06:11:33;101562.22;;;-3.07;78.09
83563;BME280;73535;52.500;13.482;2023-12-04T06:13:59;101559.66;;;-3.07;78.65
83563;BME280;73535;52.500;13.482;2023-12-04T06:16:24;101547.66;;;-2.99;78.39
83563;BME280;73535;52.500;13.482;2023-12-04T06:18:49;101561.38;;;-3.03;79.26
83563;BME280;73535;52.500;13.482;2023-12-04T06:21:14;101557.06;;;-2.81;78.71
83563;BME280;73535;52.500;13.482;2023-12-04T06:23:40;101554.50;;;-2.69;78.50
83563;BME280;73535;52.500;13.482;2023-12-04T06:26:06;101551.91;;;-2.58;78.52
83563;BME280;73535;52.500;13.482;2023-12-04T06:28:31;101554.41;;;-2.31;80.83
83563;BME280;73535;52.500;13.482;2023-12-04T06:30:58;101552.66;;;-2.20;77.86
83563;BME280;73535;52.500;13.482;2023-12-04T06:33:23;101550.94;;;-2.22;77.55
83563;BME280;73535;52.500;13.482;2023-12-04T06:35:48;101559.53;;;-2.22;78.23
83563;BME280;73535;52.500;13.482;2023-12-04T06:38:15;101550.94;;;-2.19;78.01
83563;BME280;73535;52.500;13.482;2023-12-04T06:40:41;101555.25;;;-2.21;77.77
83563;BME280;73535;52.500;13.482;2023-12-04T06:43:07;101555.19;;;-2.08;77.53
83563;BME280;73535;52.500;13.482;2023-12-04T06:45:32;101550.06;;;-2.12;77.48
83563;BME280;73535;52.500;13.482;2023-12-04T06:47:58;101549.22;;;-2.13;77.68
83563;BME280;73535;52.500;13.482;2023-12-04T06:50:24;101544.91;;;-2.06;77.42
83563;BME280;73535;52.500;13.482;2023-12-04T06:52:49;101550.88;;;-2.03;76.84
83563;BME280;73535;52.500;13.482;2023-12-04T06:55:14;101538.00;;;-2.04;77.00
83563;BME280;73535;52.500;13.482;2023-12-04T06:57:39;101537.16;;;-2.00;76.82
83563;BME280;73535;52.500;13.482;2023-12-04T07:00:05;101529.41;;;-1.99;76.72
83563;BME280;73535;52.500;13.482;2023-12-04T07:02:37;101534.53;;;-1.96;76.76
83563;BME280;73535;52.500;13.482;2023-12-04T07:05:02;101531.13;;;-2.01;76.55
83563;BME280;73535;52.500;13.482;2023-12-04T07:07:28;101519.09;;;-1.99;76.86
83563;BME280;73535;52.500;13.482;2023-12-04T07:09:53;101516.50;;;-1.96;76.31
83563;BME280;73535;52.500;13.482;2023-12-04T07:12:18;101513.06;;;-1.96;76.57
83563;BME280;73535;52.500;13.482;2023-12-04T07:14:44;101513.97;;;-2.02;77.21
83563;BME280;73535;52.500;13.482;2023-12-04T07:17:09;101510.50;;;-1.96;76.82
83563;BME280;73535;52.500;13.482;2023-12-04T07:19:34;101507.06;;;-1.92;76.90
83563;BME280;73535;52.500;13.482;2023-12-04T07:21:59;101501.91;;;-1.97;77.13
83563;BME280;73535;52.500;13.482;2023-12-04T07:24:25;101508.78;;;-1.97;77.09
83563;BME280;73535;52.500;13.482;2023-12-04T07:26:51;101508.75;;;-1.94;77.15
83563;BME280;73535;52.500;13.482;2023-12-04T07:29:16;101514.78;;;-1.97;77.35
83563;BME280;73535;52.500;13.482;2023-12-04T07:31:42;101505.34;;;-1.92;76.60
83563;BME280;73535;52.500;13.482;2023-12-04T07:34:07;101504.47;;;-1.92;76.72
83563;BME280;73535;52.500;13.482;2023-12-04T07:36:32;101506.19;;;-1.90;76.85
83563;BME280;73535;52.500;13.482;2023-12-04T07:38:57;101512.16;;;-1.83;77.10
83563;BME280;73535;52.500;13.482;2023-12-04T07:41:23;101512.97;;;-1.80;76.94
83563;BME280;73535;52.500;13.482;2023-12-04T07:43:49;101508.72;;;-1.81;76.97
83563;BME280;73535;52.500;13.482;2023-12-04T07:46:14;101517.25;;;-1.76;77.17
83563;BME280;73535;52.500;13.482;2023-12-04T07:48:39;101516.38;;;-1.70;76.92
83563;BME280;73535;52.500;13.482;2023-12-04T07:51:05;101518.06;;;-1.66;77.14
83563;BME280;73535;52.500;13.482;2023-12-04T07:53:30;101514.59;;;-1.65;77.00
83563;BME280;73535;52.500;13.482;2023-12-04T07:55:57;101503.41;;;-1.62;76.62
83563;BME280;73535;52.500;13.482;2023-12-04T07:58:22;101510.22;;;-1.52;76.62
83563;BME280;73535;52.500;13.482;2023-12-04T08:00:47;101498.19;;;-1.49;76.73
83563;BME280;73535;52.500;13.482;2023-12-04T08:03:13;101504.19;;;-1.47;76.71
83563;BME280;73535;52.500;13.482;2023-12-04T08:05:38;101496.44;;;-1.45;76.62
83563;BME280;73535;52.500;13.482;2023-12-04T08:08:03;101502.47;;;-1.48;76.37
83563;BME280;73535;52.500;13.482;2023-12-04T08:10:29;101495.59;;;-1.47;76.64
83563;BME280;73535;52.500;13.482;2023-12-04T08:12:54;101501.53;;;-1.35;76.70
83563;BME280;73535;52.500;13.482;2023-12-04T08:15:19;101494.66;;;-1.34;76.68
83563;BME280;73535;52.500;13.482;2023-12-04T08:17:44;101494.69;;;-1.45;77.02
83563;BME280;73535;52.500;13.482;2023-12-04T08:20:10;101494.72;;;-1.43;77.02
83563;BME280;73535;52.500;13.482;2023-12-04T08:22:39;101496.44;;;-1.45;77.58
83563;BME280;73535;52.500;13.482;2023-12-04T08:25:05;101492.09;;;-1.40;77.21
83563;BME280;73535;52.500;13.482;2023-12-04T08:27:32;101491.19;;;-1.36;77.29
83563;BME280;73535;52.500;13.482;2023-12-04T08:29:57;101492.06;;;-1.34;77.64
83563;BME280;73535;52.500;13.482;2023-12-04T08:32:22;101492.03;;;-1.31;77.80
83563;BME280;73535;52.500;13.482;2023-12-04T08:34:47;101491.09;;;-1.21;77.33
83563;BME280;73535;52.500;13.482;2023-12-04T08:37:13;101488.47;;;-1.18;77.52
83563;BME280;73535;52.500;13.482;2023-12-04T08:39:38;101488.34;;;-1.04;76.94
83563;BME280;73535;52.500;13.482;2023-12-04T08:42:03;101493.47;;;-1.00;77.03
83563;BME280;73535;52.500;13.482;2023-12-04T08:44:28;101490.03;;;-0.99;77.23
83563;BME280;73535;52.500;13.482;2023-12-04T08:46:54;101490.81;;;-0.91;76.88
83563;BME280;73535;52.500;13.482;2023-12-04T08:49:19;101490.78;;;-0.88;76.78
83563;BME280;73535;52.500;13.482;2023-12-04T08:51:44;101483.78;;;-0.77;77.08
83563;BME280;73535;52.500;13.482;2023-12-04T08:54:10;101491.50;;;-0.75;76.61
83563;BME280;73535;52.500;13.482;2023-12-04T08:56:35;101478.47;;;-0.62;76.37
83563;BME280;73535;52.500;13.482;2023-12-04T08:59:00;101479.19;;;-0.49;76.24
83563;BME280;73535;52.500;13.482;2023-12-04T09:01:25;101476.50;;;-0.38;75.68
83563;BME280;73535;52.500;13.482;2023-12-04T09:03:51;101482.44;;;-0.35;75.66
83563;BME280;73535;52.500;13.482;2023-12-04T09:06:17;101479.81;;;-0.30;75.71
83563;BME280;73535;52.500;13.482;2023-12-04T09:08:42;101479.81;;;-0.30;75.43
83563;BME280;73535;52.500;13.482;2023-12-04T09:11:08;101475.41;;;-0.21;75.05
83563;BME280;73535;52.500;13.482;2023-12-04T09:13:33;101474.41;;;-0.11;74.69
83563;BME280;73535;52.500;13.482;2023-12-04T09:15:59;101477.81;;;-0.07;74.36
83563;BME280;73535;52.500;13.482;2023-12-04T09:18:25;101478.63;;;-0.04;74.33
83563;BME280;73535;52.500;13.482;2023-12-04T09:20:50;101484.63;;;0.00;74.55
83563;BME280;73535;52.500;13.482;2023-12-04T09:23:15;101481.22;;;-0.04;74.39
83563;BME280;73535;52.500;13.482;2023-12-04T09:25:40;101476.88;;;-0.02;74.73
83563;BME280;73535;52.500;13.482;2023-12-04T09:28:06;101476.72;;;0.11;74.20
83563;BME280;73535;52.500;13.482;2023-12-04T09:30:31;101482.78;;;0.07;74.23
83563;BME280;73535;52.500;13.482;2023-12-04T09:32:56;101481.06;;;0.07;74.32
83563;BME280;73535;52.500;13.482;2023-12-04T09:35:21;101481.88;;;0.11;74.13
83563;BME280;73535;52.500;13.482;2023-12-04T09:37:47;101476.72;;;0.11;74.09
83563;BME280;73535;52.500;13.482;2023-12-04T09:40:15;101476.63;;;0.15;74.10
83563;BME280;73535;52.500;13.482;2023-12-04T09:42:41;101464.47;;;0.22;73.68
83563;BME280;73535;52.500;13.482;2023-12-04T09:45:08;101462.72;;;0.24;73.80
83563;BME280;73535;52.500;13.482;2023-12-04T09:47:34;101466.13;;;0.27;73.68
83563;BME280;73535;52.500;13.482;2023-12-04T09:49:59;101467.94;;;0.21;73.58
83563;BME280;73535;52.500;13.482;2023-12-04T09:52:27;101470.47;;;0.24;73.80
83563;BME280;73535;52.500;13.482;2023-12-04T09:54:52;101467.09;;;0.20;73.08
83563;BME280;73535;52.500;13.482;2023-12-04T09:57:18;101463.56;;;0.24;73.02
83563;BME280;73535;52.500;13.482;2023-12-04T09:59:44;101463.50;;;0.30;73.08
83563;BME280;73535;52.500;13.482;2023-12-04T10:02:10;101467.81;;;0.30;72.69
83563;BME280;73535;52.500;13.482;2023-12-04T10:04:35;101449.59;;;0.37;72.55
83563;BME280;73535;52.500;13.482;2023-12-04T10:07:01;101448.63;;;0.44;72.50
83563;BME280;73535;52.500;13.482;2023-12-04T10:09:27;101445.84;;;0.56;72.09
83563;BME280;73535;52.500;13.482;2023-12-04T10:11:53;101437.22;;;0.57;72.37
83563;BME280;73535;52.500;13.482;2023-12-04T10:14:21;101433.69;;;0.62;71.93
83563;BME280;73535;52.500;13.482;2023-12-04T10:16:47;101434.44;;;0.70;71.78
83563;BME280;73535;52.500;13.482;2023-12-04T10:21:43;101438.72;;;0.71;71.54
83563;BME280;73535;52.500;13.482;2023-12-04T10:24:09;101430.03;;;0.75;70.83
83563;BME280;73535;52.500;13.482;2023-12-04T10:26:34;101439.41;;;0.79;71.32
83563;BME280;73535;52.500;13.482;2023-12-04T10:29:01;101424.84;;;0.75;71.13
83563;BME280;73535;52.500;13.482;2023-12-04T10:31:32;101424.81;;;0.78;70.90
83563;BME280;73535;52.500;13.482;2023-12-04T10:33:58;101423.91;;;0.79;71.44
83563;BME280;73535;52.500;13.482;2023-12-04T10:36:23;101421.25;;;0.82;71.17
83563;BME280;73535;52.500;13.482;2023-12-04T10:38:58;101411.75;;;0.84;71.14
83563;BME280;73535;52.500;13.482;2023-12-04T10:41:24;101414.44;;;0.78;71.04
83563;BME280;73535;52.500;13.482;2023-12-04T10:43:50;101403.28;;;0.74;70.70
83563;BME280;73535;52.500;13.482;2023-12-04T10:46:15;101402.59;;;0.65;71.44
83563;BME280;73535;52.500;13.482;2023-12-04T10:48:47;101404.16;;;0.73;71.31
83563;BME280;73535;52.500;13.482;2023-12-04T10:51:12;101396.50;;;0.69;71.44
83563;BME280;73535;52.500;13.482;2023-12-04T10:53:38;101394.69;;;0.74;71.64
83563;BME280;73535;52.500;13.482;2023-12-04T10:56:07;101394.63;;;0.78;71.04
83563;BME280;73535;52.500;13.482;2023-12-04T10:58:34;101393.69;;;0.81;71.01
83563;BME280;73535;52.500;13.482;2023-12-04T11:01:01;101382.50;;;0.80;70.71
83563;BME280;73535;52.500;13.482;2023-12-04T11:03:35;101379.03;;;0.81;71.11
83563;BME280;73535;52.500;13.482;2023-12-04T11:06:02;101371.19;;;0.86;70.76
83563;BME280;73535;52.500;13.482;2023-12-04T11:08:33;101365.03;;;0.91;70.07
83563;BME280;73535;52.500;13.482;2023-12-04T11:11:02;101360.94;;;0.80;70.85
83563;BME280;73535;52.500;13.482;2023-12-04T11:13:30;101361.75;;;0.83;70.98
83563;BME280;73535;52.500;13.482;2023-12-04T11:16:02;101359.84;;;0.93;70.64
83563;BME280;73535;52.500;13.482;2023-12-04T11:18:31;101361.59;;;0.91;70.64
83563;BME280;73535;52.500;13.482;2023-12-04T11:20:59;101353.53;;;1.06;70.41
83563;BME280;73535;52.500;13.482;2023-12-04T11:23:27;101349.22;;;1.06;70.14
83563;BME280;73535;52.500;13.482;2023-12-04T11:25:53;101352.72;;;1.02;70.13
83563;BME280;73535;52.500;13.482;2023-12-04T11:28:19;101345.88;;;1.00;70.61
83563;BME280;73535;52.500;13.482;2023-12-04T11:30:45;101346.81;;;0.96;70.43
83563;BME280;73535;52.500;13.482;2023-12-04T11:33:10;101346.63;;;1.05;69.76
83563;BME280;73535;52.500;13.482;2023-12-04T11:35:38;101344.06;;;1.05;69.74
83563;BME280;73535;52.500;13.482;2023-12-04T11:38:04;101341.50;;;1.03;69.56
83563;BME280;73535;52.500;13.482;2023-12-04T11:40:30;101338.28;;;0.92;69.88
83563;BME280;73535;52.500;13.482;2023-12-04T11:42:55;101341.53;;;1.02;69.63
83563;BME280;73535;52.500;13.482;2023-12-04T11:45:20;101334.63;;;1.02;69.99
83563;BME280;73535;52.500;13.482;2023-12-04T11:47:50;101338.06;;;1.03;69.83
83563;BME280;73535;52.500;13.482;2023-12-04T11:50:17;101325.16;;;1.01;69.97
83563;BME280;73535;52.500;13.482;2023-12-04T11:52:43;101323.34;;;1.06;69.91
83563;BME280;73535;52.500;13.482;2023-12-04T11:55:09;101325.03;;;1.07;70.11
83563;BME280;73535;52.500;13.482;2023-12-04T11:57:36;101323.22;;;1.11;70.04
83563;BME280;73535;52.500;13.482;2023-12-04T12:02:38;101329.94;;;1.20;69.95
83563;BME280;73535;52.500;13.482;2023-12-04T12:05:04;101317.94;;;1.17;69.64
83563;BME280;73535;52.500;13.482;2023-12-04T12:07:30;101314.28;;;1.26;69.34
83563;BME280;73535;52.500;13.482;2023-12-04T12:09:55;101317.69;;;1.29;69.33
83563;BME280;73535;52.500;13.482;2023-12-04T12:12:20;101304.91;;;1.20;69.80
83563;BME280;73535;52.500;13.482;2023-12-04T12:14:46;101301.47;;;1.21;69.78
83563;BME280;73535;52.500;13.482;2023-12-04T12:17:11;101302.94;;;1.33;69.54
83563;BME280;73535;52.500;13.482;2023-12-04T12:19:36;101303.81;;;1.32;69.55
83563;BME280;73535;52.500;13.482;2023-12-04T12:22:03;101295.13;;;1.34;69.67
83563;BME280;73535;52.500;13.482;2023-12-04T12:24:28;101299.41;;;1.35;69.32
83563;BME280;73535;52.500;13.482;2023-12-04T12:26:54;101294.19;;;1.38;69.48
83563;BME280;73535;52.500;13.482;2023-12-04T12:29:19;101290.78;;;1.36;69.17
83563;BME280;73535;52.500;13.482;2023-12-04T12:31:45;101286.44;;;1.37;69.27
83563;BME280;73535;52.500;13.482;2023-12-04T12:34:11;101284.69;;;1.39;69.06
83563;BME280;73535;52.500;13.482;2023-12-04T12:36:36;101287.28;;;1.39;69.46
83563;BME280;73535;52.500;13.482;2023-12-04T12:39:02;101283.81;;;1.38;69.35